sensor_id;sensor_type;location;lat;lon;timestamp;pressure;altitude;pressure_sealevel;temperature;humidity
42601;BME280;28229;48.856;9.088;2023-01-29T00:01:30;99047.34;;;-1.02;80.20
42601;BME280;28229;48.856;9.088;2023-01-29T00:03:56;99038.44;;;-0.98;80.74
42601;BME280;28229;48.856;9.088;2023-01-29T00:06:22;99043.63;;;-0.87;80.40
42601;BME280;28229;48.856;9.088;2023-01-29T00:08:49;99044.53;;;-0.88;80.22
42601;BME280;28229;48.856;9.088;2023-01-29T00:11:15;99042.22;;;-0.80;79.48
42601;BME280;28229;48.856;9.088;2023-01-29T00:13:42;99042.44;;;-0.83;79.54
42601;BME280;28229;48.856;9.088;2023-01-29T00:16:08;99040.09;;;-0.86;79.91
42601;BME280;28229;48.856;9.088;2023-01-29T00:18:38;99035.50;;;-0.82;79.66
42601;BME280;28229;48.856;9.088;2023-01-29T00:21:13;99045.72;;;-0.81;80.00
42601;BME280;28229;48.856;9.088;2023-01-29T00:23:40;99041.03;;;-0.87;79.30
42601;BME280;28229;48.856;9.088;2023-01-29T00:26:06;99045.72;;;-0.81;80.22
42601;BME280;28229;48.856;9.088;2023-01-29T00:28:33;99042.22;;;-0.80;80.27
42601;BME280;28229;48.856;9.088;2023-01-29T00:31:10;99037.50;;;-0.86;79.04
42601;BME280;28229;48.856;9.088;2023-01-29T00:33:37;99045.50;;;-0.78;79.36
42601;BME280;28229;48.856;9.088;2023-01-29T00:36:06;99037.97;;;-0.81;79.17
42601;BME280;28229;48.856;9.088;2023-01-29T00:38:33;99030.81;;;-0.77;78.34
42601;BME280;28229;48.856;9.088;2023-01-29T00:41:11;99031.66;;;-0.77;78.24
42601;BME280;28229;48.856;9.088;2023-01-29T00:43:57;99035.16;;;-0.78;78.02
42601;BME280;28229;48.856;9.088;2023-01-29T00:46:43;99036.34;;;-0.82;78.92
42601;BME280;28229;48.856;9.088;2023-01-29T00:49:10;99031.41;;;-0.85;79.42
42601;BME280;28229;48.856;9.088;2023-01-29T00:51:37;99043.25;;;-0.82;79.06
42601;BME280;28229;48.856;9.088;2023-01-29T00:54:04;99038.94;;;-0.82;78.60
42601;BME280;28229;48.856;9.088;2023-01-29T00:56:34;99037.03;;;-0.80;78.27
42601;BME280;28229;48.856;9.088;2023-01-29T00:59:01;99036.94;;;-0.78;77.48
42601;BME280;28229;48.856;9.088;2023-01-29T01:01:28;99038.34;;;-0.85;77.37
42601;BME280;28229;48.856;9.088;2023-01-29T01:04:15;99046.06;;;-0.97;77.68
42601;BME280;28229;48.856;9.088;2023-01-29T01:06:42;99038.78;;;-1.03;78.18
42601;BME280;28229;48.856;9.088;2023-01-29T01:09:09;99038.09;;;-1.05;78.32
42601;BME280;28229;48.856;9.088;2023-01-29T01:11:54;99038.44;;;-1.09;78.33
42601;BME280;28229;48.856;9.088;2023-01-29T01:14:21;99037.00;;;-1.25;78.83
42601;BME280;28229;48.856;9.088;2023-01-29T01:16:48;99037.00;;;-1.25;79.22
42601;BME280;28229;48.856;9.088;2023-01-29T01:19:14;99039.34;;;-1.33;79.96
42601;BME280;28229;48.856;9.088;2023-01-29T01:21:41;99038.88;;;-1.27;80.06
42601;BME280;28229;48.856;9.088;2023-01-29T01:24:14;99038.19;;;-1.18;79.98
42601;BME280;28229;48.856;9.088;2023-01-29T01:26:40;99025.50;;;-1.09;80.08
42601;BME280;28229;48.856;9.088;2023-01-29T01:29:06;99029.06;;;-1.10;79.87
42601;BME280;28229;48.856;9.088;2023-01-29T01:31:33;99039.00;;;-1.17;80.27
42601;BME280;28229;48.856;9.088;2023-01-29T01:33:59;99040.09;;;-1.08;80.62
42601;BME280;28229;48.856;9.088;2023-01-29T01:36:25;99041.97;;;-1.10;80.74
42601;BME280;28229;48.856;9.088;2023-01-29T01:38:51;99041.00;;;-1.09;79.61
42601;BME280;28229;48.856;9.088;2023-01-29T01:41:20;99040.31;;;-1.23;79.88
42601;BME280;28229;48.856;9.088;2023-01-29T01:43:57;99038.78;;;-1.14;80.15
42601;BME280;28229;48.856;9.088;2023-01-29T01:46:30;99035.63;;;-1.18;80.19
42601;BME280;28229;48.856;9.088;2023-01-29T01:49:02;99032.44;;;-1.21;79.31
42601;BME280;28229;48.856;9.088;2023-01-29T01:51:32;99037.25;;;-1.17;79.26
42601;BME280;28229;48.856;9.088;2023-01-29T01:54:05;99036.31;;;-1.16;79.09
42601;BME280;28229;48.856;9.088;2023-01-29T01:56:37;99038.19;;;-1.18;78.81
42601;BME280;28229;48.856;9.088;2023-01-29T01:59:09;99028.91;;;-1.20;78.83
42601;BME280;28229;48.856;9.088;2023-01-29T02:01:36;99034.06;;;-1.20;78.89
42601;BME280;28229;48.856;9.088;2023-01-29T02:04:12;99026.44;;;-1.22;79.39
42601;BME280;28229;48.856;9.088;2023-01-29T02:07:02;99024.81;;;-1.23;79.22
42601;BME280;28229;48.856;9.088;2023-01-29T02:10:16;99025.50;;;-1.21;79.25
42601;BME280;28229;48.856;9.088;2023-01-29T02:12:41;99031.47;;;-1.31;79.80
42601;BME280;28229;48.856;9.088;2023-01-29T02:15:08;99038.53;;;-1.33;79.33
42601;BME280;28229;48.856;9.088;2023-01-29T02:17:34;99032.41;;;-1.32;79.13
42601;BME280;28229;48.856;9.088;2023-01-29T02:20:41;99033.94;;;-1.30;79.37
42601;BME280;28229;48.856;9.088;2023-01-29T02:23:19;99036.06;;;-1.35;79.34
42601;BME280;28229;48.856;9.088;2023-01-29T02:31:31;99041.44;;;-1.38;79.92
42601;BME280;28229;48.856;9.088;2023-01-29T02:36:52;99033.25;;;-1.21;79.99
42601;BME280;28229;48.856;9.088;2023-01-29T02:39:32;99032.09;;;-1.17;79.87
42601;BME280;28229;48.856;9.088;2023-01-29T02:42:23;99036.81;;;-1.10;79.81
42601;BME280;28229;48.856;9.088;2023-01-29T02:44:59;99034.44;;;-1.13;79.78
42601;BME280;28229;48.856;9.088;2023-01-29T02:47:34;99034.44;;;-1.13;80.06
42601;BME280;28229;48.856;9.088;2023-01-29T02:50:13;99034.44;;;-1.13;79.88
42601;BME280;28229;48.856;9.088;2023-01-29T02:53:17;99030.91;;;-1.12;80.12
42601;BME280;28229;48.856;9.088;2023-01-29T02:55:44;99032.88;;;-1.27;80.44
42601;BME280;28229;48.856;9.088;2023-01-29T02:58:23;99019.88;;;-1.15;79.99
42601;BME280;28229;48.856;9.088;2023-01-29T03:01:01;99024.81;;;-1.23;79.53
42601;BME280;28229;48.856;9.088;2023-01-29T03:03:45;99032.44;;;-1.21;78.52
42601;BME280;28229;48.856;9.088;2023-01-29T03:06:34;99034.53;;;-1.26;78.22
42601;BME280;28229;48.856;9.088;2023-01-29T03:09:12;99029.13;;;-1.35;79.01
42601;BME280;28229;48.856;9.088;2023-01-29T03:11:45;99028.78;;;-1.30;79.55
42601;BME280;28229;48.856;9.088;2023-01-29T03:14:18;99032.78;;;-1.26;79.20
42601;BME280;28229;48.856;9.088;2023-01-29T03:19:35;99027.13;;;-1.31;79.42
42601;BME280;28229;48.856;9.088;2023-01-29T03:22:09;99028.91;;;-1.31;79.22
42601;BME280;28229;48.856;9.088;2023-01-29T03:24:44;99027.47;;;-1.36;78.99
42601;BME280;28229;48.856;9.088;2023-01-29T03:27:57;99025.94;;;-1.38;79.32
42601;BME280;28229;48.856;9.088;2023-01-29T03:30:54;99029.34;;;-1.38;80.08
42601;BME280;28229;48.856;9.088;2023-01-29T03:33:47;99027.47;;;-1.36;80.13
42601;BME280;28229;48.856;9.088;2023-01-29T03:36:20;99027.59;;;-1.37;80.15
42601;BME280;28229;48.856;9.088;2023-01-29T03:38:48;99022.78;;;-1.30;79.91
42601;BME280;28229;48.856;9.088;2023-01-29T03:41:32;99025.25;;;-1.29;78.50
42601;BME280;28229;48.856;9.088;2023-01-29T03:44:34;99021.75;;;-1.28;78.16
42601;BME280;28229;48.856;9.088;2023-01-29T03:47:13;99030.19;;;-1.26;78.07
42601;BME280;28229;48.856;9.088;2023-01-29T03:52:44;99021.75;;;-1.28;77.33
42601;BME280;28229;48.856;9.088;2023-01-29T03:55:23;99029.00;;;-1.33;77.48
42601;BME280;28229;48.856;9.088;2023-01-29T03:57:59;99034.38;;;-1.36;76.98
42601;BME280;28229;48.856;9.088;2023-01-29T04:00:29;99026.16;;;-1.41;77.05
42601;BME280;28229;48.856;9.088;2023-01-29T04:03:20;99018.41;;;-1.52;77.77
42601;BME280;28229;48.856;9.088;2023-01-29T04:05:52;99020.97;;;-1.64;78.76
42601;BME280;28229;48.856;9.088;2023-01-29T04:08:31;99028.25;;;-1.58;79.27
42601;BME280;28229;48.856;9.088;2023-01-29T04:11:06;99025.66;;;-1.58;79.22
42601;BME280;28229;48.856;9.088;2023-01-29T04:13:35;99030.50;;;-1.53;78.61
42601;BME280;28229;48.856;9.088;2023-01-29T04:16:03;99035.06;;;-1.57;78.99
42601;BME280;28229;48.856;9.088;2023-01-29T04:18:50;99035.28;;;-1.48;79.13
42601;BME280;28229;48.856;9.088;2023-01-29T04:21:24;99032.59;;;-1.47;78.93
42601;BME280;28229;48.856;9.088;2023-01-29T04:23:50;99037.66;;;-1.45;78.08
42601;BME280;28229;48.856;9.088;2023-01-29T04:29:08;99041.84;;;-1.56;78.15
42601;BME280;28229;48.856;9.088;2023-01-29T04:37:41;99035.69;;;-1.42;78.63
42601;BME280;28229;48.856;9.088;2023-01-29T04:40:20;99028.03;;;-1.43;78.15
42601;BME280;28229;48.856;9.088;2023-01-29T04:43:05;99036.50;;;-1.41;78.13
42601;BME280;28229;48.856;9.088;2023-01-29T04:51:24;99036.19;;;-1.61;79.59
42601;BME280;28229;48.856;9.088;2023-01-29T04:59:32;99038.84;;;-1.49;79.30
42601;BME280;28229;48.856;9.088;2023-01-29T05:02:00;99035.75;;;-1.55;79.85
42601;BME280;28229;48.856;9.088;2023-01-29T05:04:31;99033.66;;;-1.49;79.67
42601;BME280;28229;48.856;9.088;2023-01-29T05:07:07;99037.84;;;-1.60;79.42
42601;BME280;28229;48.856;9.088;2023-01-29T05:09:37;99030.13;;;-1.48;79.31
42601;BME280;28229;48.856;9.088;2023-01-29T05:12:10;99030.00;;;-1.58;78.63
42601;BME280;28229;48.856;9.088;2023-01-29T05:14:39;99023.97;;;-1.70;78.98
42601;BME280;28229;48.856;9.088;2023-01-29T05:17:18;99026.34;;;-1.67;79.40
42601;BME280;28229;48.856;9.088;2023-01-29T05:19:45;99030.09;;;-1.71;79.58
42601;BME280;28229;48.856;9.088;2023-01-29T05:22:15;99035.09;;;-1.69;79.30
42601;BME280;28229;48.856;9.088;2023-01-29T05:24:42;99033.59;;;-1.72;79.15
42601;BME280;28229;48.856;9.088;2023-01-29T05:27:18;99035.53;;;-1.87;79.72
42601;BME280;28229;48.856;9.088;2023-01-29T05:30:04;99037.09;;;-1.73;79.80
42601;BME280;28229;48.856;9.088;2023-01-29T05:32:30;99038.66;;;-1.95;79.74
42601;BME280;28229;48.856;9.088;2023-01-29T05:34:57;99040.59;;;-1.85;80.12
42601;BME280;28229;48.856;9.088;2023-01-29T05:37:23;99036.75;;;-1.80;80.19
42601;BME280;28229;48.856;9.088;2023-01-29T05:39:49;99030.50;;;-1.77;80.00
42601;BME280;28229;48.856;9.088;2023-01-29T05:42:15;99034.75;;;-1.76;80.34
42601;BME280;28229;48.856;9.088;2023-01-29T05:44:41;99022.28;;;-1.82;80.07
42601;BME280;28229;48.856;9.088;2023-01-29T05:47:07;99012.13;;;-1.73;80.18
42601;BME280;28229;48.856;9.088;2023-01-29T05:49:34;98995.81;;;-1.73;79.72
42601;BME280;28229;48.856;9.088;2023-01-29T05:52:00;98983.19;;;-1.65;79.82
42601;BME280;28229;48.856;9.088;2023-01-29T05:54:26;98981.31;;;-1.63;79.23
42601;BME280;28229;48.856;9.088;2023-01-29T05:56:52;98975.25;;;-1.86;79.17
42601;BME280;28229;48.856;9.088;2023-01-29T05:59:18;98991.81;;;-1.77;79.98
42601;BME280;28229;48.856;9.088;2023-01-29T06:01:45;99000.38;;;-1.77;79.94
42601;BME280;28229;48.856;9.088;2023-01-29T06:04:11;99006.50;;;-1.78;79.89
42601;BME280;28229;48.856;9.088;2023-01-29T06:06:37;99006.88;;;-1.71;80.07
42601;BME280;28229;48.856;9.088;2023-01-29T06:09:03;99008.38;;;-1.68;79.64
42601;BME280;28229;48.856;9.088;2023-01-29T06:11:29;98997.47;;;-1.72;79.44
42601;BME280;28229;48.856;9.088;2023-01-29T06:13:55;99002.31;;;-1.67;80.27
42601;BME280;28229;48.856;9.088;2023-01-29T06:16:21;99010.84;;;-1.67;80.25
42601;BME280;28229;48.856;9.088;2023-01-29T06:18:48;99007.56;;;-1.69;79.40
42601;BME280;28229;48.856;9.088;2023-01-29T06:21:14;99000.53;;;-1.67;79.48
42601;BME280;28229;48.856;9.088;2023-01-29T06:23:40;99015.63;;;-1.74;79.83
42601;BME280;28229;48.856;9.088;2023-01-29T06:26:09;99011.88;;;-1.69;79.67
42601;BME280;28229;48.856;9.088;2023-01-29T06:28:36;99013.53;;;-1.68;79.95
42601;BME280;28229;48.856;9.088;2023-01-29T06:31:04;99016.22;;;-1.70;79.72
42601;BME280;28229;48.856;9.088;2023-01-29T06:33:31;99009.19;;;-1.68;79.67
42601;BME280;28229;48.856;9.088;2023-01-29T06:35:58;99023.28;;;-1.72;79.79
42601;BME280;28229;48.856;9.088;2023-01-29T06:38:26;99018.50;;;-1.65;78.90
42601;BME280;28229;48.856;9.088;2023-01-29T06:40:53;99016.22;;;-1.70;78.77
42601;BME280;28229;48.856;9.088;2023-01-29T06:43:20;99017.66;;;-1.66;78.83
42601;BME280;28229;48.856;9.088;2023-01-29T06:45:51;99013.69;;;-1.59;79.32
42601;BME280;28229;48.856;9.088;2023-01-29T06:48:18;99008.75;;;-1.62;79.43
42601;BME280;28229;48.856;9.088;2023-01-29T06:50:44;99016.59;;;-1.75;79.30
42601;BME280;28229;48.856;9.088;2023-01-29T06:53:11;99015.03;;;-1.77;79.44
42601;BME280;28229;48.856;9.088;2023-01-29T06:55:38;99021.75;;;-1.75;79.85
42601;BME280;28229;48.856;9.088;2023-01-29T06:58:10;99030.31;;;-1.74;79.49
42601;BME280;28229;48.856;9.088;2023-01-29T07:00:37;99032.91;;;-1.63;79.64
42601;BME280;28229;48.856;9.088;2023-01-29T07:03:03;99038.19;;;-1.64;79.39
42601;BME280;28229;48.856;9.088;2023-01-29T07:05:30;99028.22;;;-1.69;79.71
42601;BME280;28229;48.856;9.088;2023-01-29T07:07:56;99031.72;;;-1.70;80.33
42601;BME280;28229;48.856;9.088;2023-01-29T07:10:23;99030.69;;;-1.67;80.30
42601;BME280;28229;48.856;9.088;2023-01-29T07:12:49;99026.56;;;-1.70;80.50
42601;BME280;28229;48.856;9.088;2023-01-29T07:15:16;99029.13;;;-1.70;80.21
42601;BME280;28229;48.856;9.088;2023-01-29T07:17:59;99026.56;;;-1.70;80.30
42601;BME280;28229;48.856;9.088;2023-01-29T07:20:27;99028.44;;;-1.72;81.16
42601;BME280;28229;48.856;9.088;2023-01-29T07:22:55;99040.63;;;-1.74;80.37
42601;BME280;28229;48.856;9.088;2023-01-29T07:25:22;99031.50;;;-1.67;80.26
42601;BME280;28229;48.856;9.088;2023-01-29T07:27:49;99035.72;;;-1.66;80.28
42601;BME280;28229;48.856;9.088;2023-01-29T07:30:16;99050.41;;;-1.55;89.26
42601;BME280;28229;48.856;9.088;2023-01-29T07:32:42;99055.09;;;-1.13;100.00
42601;BME280;28229;48.856;9.088;2023-01-29T07:35:09;99049.84;;;-0.78;100.00
42601;BME280;28229;48.856;9.088;2023-01-29T07:37:35;99048.09;;;-0.78;100.00
42601;BME280;28229;48.856;9.088;2023-01-29T07:40:02;99053.69;;;-0.95;92.18
42601;BME280;28229;48.856;9.088;2023-01-29T07:42:30;99050.91;;;-1.03;84.47
42601;BME280;28229;48.856;9.088;2023-01-29T07:44:56;99056.97;;;-1.16;83.06
42601;BME280;28229;48.856;9.088;2023-01-29T07:47:22;99053.91;;;-1.21;82.76
42601;BME280;28229;48.856;9.088;2023-01-29T07:49:48;99054.94;;;-1.23;83.18
42601;BME280;28229;48.856;9.088;2023-01-29T07:52:15;99052.47;;;-1.25;83.45
42601;BME280;28229;48.856;9.088;2023-01-29T07:54:41;99066.13;;;-1.23;81.05
42601;BME280;28229;48.856;9.088;2023-01-29T07:57:07;99063.44;;;-1.21;80.52
42601;BME280;28229;48.856;9.088;2023-01-29T07:59:33;99065.38;;;-1.25;80.74
42601;BME280;28229;48.856;9.088;2023-01-29T08:01:59;99069.19;;;-1.18;80.72
42601;BME280;28229;48.856;9.088;2023-01-29T08:04:25;99064.94;;;-1.30;80.47
42601;BME280;28229;48.856;9.088;2023-01-29T08:06:51;99067.16;;;-1.25;79.92
42601;BME280;28229;48.856;9.088;2023-01-29T08:09:18;99061.88;;;-1.24;80.58
42601;BME280;28229;48.856;9.088;2023-01-29T08:11:44;99064.94;;;-1.19;79.97
42601;BME280;28229;48.856;9.088;2023-01-29T08:14:10;99073.63;;;-1.20;80.44
42601;BME280;28229;48.856;9.088;2023-01-29T08:16:36;99076.19;;;-1.20;80.54
42601;BME280;28229;48.856;9.088;2023-01-29T08:19:02;99082.09;;;-1.18;81.28
42601;BME280;28229;48.856;9.088;2023-01-29T08:21:29;99084.44;;;-1.15;80.67
42601;BME280;28229;48.856;9.088;2023-01-29T08:23:55;99084.41;;;-1.26;80.13
42601;BME280;28229;48.856;9.088;2023-01-29T08:26:21;99081.84;;;-1.15;80.16
42601;BME280;28229;48.856;9.088;2023-01-29T08:28:47;99084.69;;;-1.18;80.68
42601;BME280;28229;48.856;9.088;2023-01-29T08:31:18;99085.59;;;-1.30;81.04
42601;BME280;28229;48.856;9.088;2023-01-29T08:33:47;99082.44;;;-1.22;81.78
42601;BME280;28229;48.856;9.088;2023-01-29T08:36:14;99082.06;;;-1.29;81.52
42601;BME280;28229;48.856;9.088;2023-01-29T08:38:40;99089.69;;;-1.27;81.49
42601;BME280;28229;48.856;9.088;2023-01-29T08:41:06;99099.63;;;-1.34;80.89
42601;BME280;28229;48.856;9.088;2023-01-29T08:43:33;99091.88;;;-1.34;81.10
42601;BME280;28229;48.856;9.088;2023-01-29T08:46:03;99088.03;;;-1.28;81.19
42601;BME280;28229;48.856;9.088;2023-01-29T08:48:30;99087.91;;;-1.38;81.16
42601;BME280;28229;48.856;9.088;2023-01-29T08:50:58;99095.03;;;-1.06;87.62
42601;BME280;28229;48.856;9.088;2023-01-29T08:53:24;99087.16;;;-0.93;86.33
42601;BME280;28229;48.856;9.088;2023-01-29T08:55:51;99083.31;;;-0.77;86.84
42601;BME280;28229;48.856;9.088;2023-01-29T08:58:18;99081.78;;;-0.68;84.58
42601;BME280;28229;48.856;9.088;2023-01-29T09:00:44;99080.25;;;-0.59;85.53
42601;BME280;28229;48.856;9.088;2023-01-29T09:03:10;99088.25;;;-0.51;84.81
42601;BME280;28229;48.856;9.088;2023-01-29T09:05:38;99091.31;;;-0.46;84.18
42601;BME280;28229;48.856;9.088;2023-01-29T09:08:04;99085.53;;;-0.38;84.52
42601;BME280;28229;48.856;9.088;2023-01-29T09:10:31;99105.41;;;-0.39;80.96
42601;BME280;28229;48.856;9.088;2023-01-29T09:12:57;99100.47;;;-0.30;82.46
42601;BME280;28229;48.856;9.088;2023-01-29T09:15:23;99101.28;;;-0.18;83.04
42601;BME280;28229;48.856;9.088;2023-01-29T09:17:50;99096.47;;;-0.23;80.32
42601;BME280;28229;48.856;9.088;2023-01-29T09:20:16;99106.09;;;-0.14;80.94
42601;BME280;28229;48.856;9.088;2023-01-29T09:22:45;99109.16;;;-0.09;80.85
42601;BME280;28229;48.856;9.088;2023-01-29T09:25:12;99100.19;;;-0.05;79.01
42601;BME280;28229;48.856;9.088;2023-01-29T09:27:53;99100.19;;;-0.05;76.90
42601;BME280;28229;48.856;9.088;2023-01-29T09:30:19;99113.38;;;0.04;78.17
42601;BME280;28229;48.856;9.088;2023-01-29T09:32:46;99107.91;;;0.07;77.39
42601;BME280;28229;48.856;9.088;2023-01-29T09:35:12;99108.84;;;0.17;78.92
42601;BME280;28229;48.856;9.088;2023-01-29T09:37:38;99111.19;;;0.20;76.92
42601;BME280;28229;48.856;9.088;2023-01-29T09:40:05;99106.22;;;0.28;76.59
42601;BME280;28229;48.856;9.088;2023-01-29T09:42:46;99084.44;;;0.63;79.01
42601;BME280;28229;48.856;9.088;2023-01-29T09:45:23;99076.91;;;0.60;70.41
42601;BME280;28229;48.856;9.088;2023-01-29T09:47:50;99070.66;;;0.42;69.35
42601;BME280;28229;48.856;9.088;2023-01-29T09:50:21;99068.81;;;0.32;69.43
42601;BME280;28229;48.856;9.088;2023-01-29T09:52:56;99066.78;;;0.36;69.47
42601;BME280;28229;48.856;9.088;2023-01-29T09:55:29;99058.09;;;0.58;71.93
42601;BME280;28229;48.856;9.088;2023-01-29T09:57:59;99051.78;;;0.93;69.85
42601;BME280;28229;48.856;9.088;2023-01-29T10:00:35;99045.97;;;1.10;69.43
42601;BME280;28229;48.856;9.088;2023-01-29T10:11:58;99036.09;;;1.66;68.05
42601;BME280;28229;48.856;9.088;2023-01-29T10:14:34;99044.28;;;1.61;66.42
42601;BME280;28229;48.856;9.088;2023-01-29T10:25:05;99044.13;;;1.22;65.11
42601;BME280;28229;48.856;9.088;2023-01-29T10:27:34;99049.88;;;1.26;66.64
42601;BME280;28229;48.856;9.088;2023-01-29T10:30:16;99048.66;;;1.30;65.44
42601;BME280;28229;48.856;9.088;2023-01-29T10:32:45;99047.09;;;1.18;64.77
42601;BME280;28229;48.856;9.088;2023-01-29T10:35:21;99046.16;;;1.19;66.58
42601;BME280;28229;48.856;9.088;2023-01-29T10:37:51;99037.69;;;1.17;64.76
42601;BME280;28229;48.856;9.088;2023-01-29T10:42:54;99043.31;;;1.22;66.42
42601;BME280;28229;48.856;9.088;2023-01-29T10:45:29;99049.88;;;1.26;67.67
42601;BME280;28229;48.856;9.088;2023-01-29T10:50:46;99046.13;;;1.49;67.17
42601;BME280;28229;48.856;9.088;2023-01-29T10:58:49;99039.56;;;1.45;65.91
42601;BME280;28229;48.856;9.088;2023-01-29T11:01:16;99044.78;;;1.45;66.77
42601;BME280;28229;48.856;9.088;2023-01-29T11:03:42;99048.84;;;1.48;66.57
42601;BME280;28229;48.856;9.088;2023-01-29T11:06:18;99045.38;;;1.59;66.19
42601;BME280;28229;48.856;9.088;2023-01-29T11:14:53;99038.22;;;1.41;67.27
42601;BME280;28229;48.856;9.088;2023-01-29T11:17:22;99035.25;;;1.56;66.56
42601;BME280;28229;48.856;9.088;2023-01-29T11:19:50;99029.81;;;1.59;66.53
42601;BME280;28229;48.856;9.088;2023-01-29T11:22:20;99023.47;;;1.51;65.66
42601;BME280;28229;48.856;9.088;2023-01-29T11:25:15;99012.34;;;1.61;66.22
42601;BME280;28229;48.856;9.088;2023-01-29T11:27:47;99001.16;;;1.70;66.08
42601;BME280;28229;48.856;9.088;2023-01-29T11:30:20;98994.34;;;1.79;65.54
42601;BME280;28229;48.856;9.088;2023-01-29T11:35:35;98993.50;;;1.98;65.67
42601;BME280;28229;48.856;9.088;2023-01-29T11:38:07;98993.25;;;2.01;65.15
42601;BME280;28229;48.856;9.088;2023-01-29T11:40:37;98989.97;;;1.99;64.68
42601;BME280;28229;48.856;9.088;2023-01-29T11:45:43;98986.16;;;2.03;63.29
42601;BME280;28229;48.856;9.088;2023-01-29T11:48:15;98990.78;;;1.99;64.21
42601;BME280;28229;48.856;9.088;2023-01-29T11:50:43;98989.41;;;2.05;63.96
42601;BME280;28229;48.856;9.088;2023-01-29T11:53:36;98988.22;;;2.09;63.59
42601;BME280;28229;48.856;9.088;2023-01-29T11:56:17;98984.38;;;2.13;63.79
42601;BME280;28229;48.856;9.088;2023-01-29T11:58:45;98978.78;;;2.18;62.68
42601;BME280;28229;48.856;9.088;2023-01-29T12:01:17;98968.94;;;2.02;62.39
42601;BME280;28229;48.856;9.088;2023-01-29T12:03:49;98964.16;;;2.07;62.47
42601;BME280;28229;48.856;9.088;2023-01-29T12:06:20;98961.56;;;2.07;61.49
42601;BME280;28229;48.856;9.088;2023-01-29T12:09:01;98949.69;;;1.95;61.53
42601;BME280;28229;48.856;9.088;2023-01-29T12:11:34;98944.91;;;1.90;62.19
42601;BME280;28229;48.856;9.088;2023-01-29T12:14:03;98931.25;;;1.88;62.50
42601;BME280;28229;48.856;9.088;2023-01-29T12:16:51;98928.22;;;2.12;63.04
42601;BME280;28229;48.856;9.088;2023-01-29T12:19:57;98920.56;;;2.30;62.76
42601;BME280;28229;48.856;9.088;2023-01-29T12:25:06;98907.53;;;2.40;61.44
42601;BME280;28229;48.856;9.088;2023-01-29T12:27:48;98908.72;;;2.55;62.28
42601;BME280;28229;48.856;9.088;2023-01-29T12:30:30;98899.09;;;2.65;61.67
42601;BME280;28229;48.856;9.088;2023-01-29T12:33:08;98900.66;;;2.86;61.29
42601;BME280;28229;48.856;9.088;2023-01-29T12:35:41;98888.16;;;2.99;61.22
42601;BME280;28229;48.856;9.088;2023-01-29T12:38:19;98883.22;;;3.24;60.67
42601;BME280;28229;48.856;9.088;2023-01-29T12:40:51;98878.41;;;3.29;59.45
42601;BME280;28229;48.856;9.088;2023-01-29T12:45:54;98869.16;;;3.17;59.50
42601;BME280;28229;48.856;9.088;2023-01-29T12:48:26;98868.25;;;3.08;59.26
42601;BME280;28229;48.856;9.088;2023-01-29T12:51:13;98868.22;;;3.18;59.58
42601;BME280;28229;48.856;9.088;2023-01-29T12:53:45;98860.44;;;3.36;59.54
42601;BME280;28229;48.856;9.088;2023-01-29T12:56:20;98853.00;;;3.41;59.36
42601;BME280;28229;48.856;9.088;2023-01-29T12:59:00;98851.19;;;3.23;58.03
42601;BME280;28229;48.856;9.088;2023-01-29T13:01:40;98846.81;;;3.24;59.08
42601;BME280;28229;48.856;9.088;2023-01-29T13:04:15;98847.72;;;3.51;59.26
42601;BME280;28229;48.856;9.088;2023-01-29T13:06:50;98843.31;;;3.69;58.59
42601;BME280;28229;48.856;9.088;2023-01-29T13:09:22;98841.06;;;3.92;56.99
42601;BME280;28229;48.856;9.088;2023-01-29T13:12:05;98839.94;;;3.95;57.01
42601;BME280;28229;48.856;9.088;2023-01-29T13:17:23;98838.59;;;3.91;57.56
42601;BME280;28229;48.856;9.088;2023-01-29T13:19:53;98835.75;;;4.02;57.60
42601;BME280;28229;48.856;9.088;2023-01-29T13:22:26;98837.78;;;4.16;56.57
42601;BME280;28229;48.856;9.088;2023-01-29T13:24:53;98828.16;;;4.43;56.15
42601;BME280;28229;48.856;9.088;2023-01-29T13:27:26;98827.25;;;4.61;55.63
42601;BME280;28229;48.856;9.088;2023-01-29T13:29:55;98839.59;;;4.50;55.24
42601;BME280;28229;48.856;9.088;2023-01-29T13:32:31;98840.22;;;4.44;55.88
42601;BME280;28229;48.856;9.088;2023-01-29T13:35:11;98840.97;;;4.36;55.57
42601;BME280;28229;48.856;9.088;2023-01-29T13:37:49;98846.97;;;4.29;55.19
42601;BME280;28229;48.856;9.088;2023-01-29T13:40:23;98845.16;;;4.21;55.70
42601;BME280;28229;48.856;9.088;2023-01-29T13:42:51;98838.28;;;4.20;55.86
42601;BME280;28229;48.856;9.088;2023-01-29T13:45:32;98845.19;;;4.03;55.08
42601;BME280;28229;48.856;9.088;2023-01-29T13:50:46;98841.00;;;4.10;55.59
42601;BME280;28229;48.856;9.088;2023-01-29T13:53:23;98842.69;;;4.19;55.74
42601;BME280;28229;48.856;9.088;2023-01-29T13:55:50;98849.53;;;4.20;55.10
42601;BME280;28229;48.856;9.088;2023-01-29T14:01:08;98849.84;;;4.17;55.48
42601;BME280;28229;48.856;9.088;2023-01-29T14:03:43;98838.59;;;4.17;54.91
42601;BME280;28229;48.856;9.088;2023-01-29T14:06:10;98837.53;;;4.02;55.97
42601;BME280;28229;48.856;9.088;2023-01-29T14:08:39;98836.97;;;3.90;56.63
42601;BME280;28229;48.856;9.088;2023-01-29T14:13:38;98831.34;;;3.76;56.97
42601;BME280;28229;48.856;9.088;2023-01-29T14:18:54;98824.31;;;3.95;56.27
42601;BME280;28229;48.856;9.088;2023-01-29T14:21:28;98829.56;;;4.03;56.74
42601;BME280;28229;48.856;9.088;2023-01-29T14:35:18;98826.84;;;3.87;56.72
42601;BME280;28229;48.856;9.088;2023-01-29T14:37:53;98813.50;;;3.81;56.83
42601;BME280;28229;48.856;9.088;2023-01-29T14:40:23;98813.50;;;3.81;56.44
42601;BME280;28229;48.856;9.088;2023-01-29T14:43:17;98813.31;;;3.83;56.72
42601;BME280;28229;48.856;9.088;2023-01-29T14:45:47;98810.88;;;3.81;56.50
42601;BME280;28229;48.856;9.088;2023-01-29T14:48:51;98816.75;;;3.84;56.58
42601;BME280;28229;48.856;9.088;2023-01-29T14:51:19;98814.41;;;3.98;56.52
42601;BME280;28229;48.856;9.088;2023-01-29T14:59:26;98807.50;;;3.89;55.98
42601;BME280;28229;48.856;9.088;2023-01-29T15:01:55;98808.38;;;3.98;59.32
42601;BME280;28229;48.856;9.088;2023-01-29T15:04:29;98817.25;;;4.13;59.64
42601;BME280;28229;48.856;9.088;2023-01-29T15:07:02;98825.41;;;4.18;58.13
42601;BME280;28229;48.856;9.088;2023-01-29T15:17:33;98830.53;;;3.58;58.13
42601;BME280;28229;48.856;9.088;2023-01-29T15:22:54;98830.81;;;3.19;59.53
42601;BME280;28229;48.856;9.088;2023-01-29T15:25:21;98830.09;;;3.09;59.69
42601;BME280;28229;48.856;9.088;2023-01-29T15:27:47;98821.53;;;2.98;60.37